Latest Weather Observations for Brisbane Airport

IDQ60801

Issued at 3:02 pm EST Friday 24 November 2017 (issued every 30 minutes, with the page automatically refreshed every 10 minutes)

About weather observations | Map of weather stations | Latest weather observations for QLD | Other Formats
Station Details ID: 040842 Name: BRISBANE AERO Lat: -27.39 Lon: 153.13 Height: 4.51 m
Data from the previous 72 hours. | See also: Recent months at Brisbane Airport
Date/Time
EST
Temp
°C
App
Temp
°C
Dew
Point
°C
Rel
Hum
%
Delta-T
°C
Wind Press
QNH
hPa
Press
MSL
hPa
Rain since
9am
mm
Dir  Spd
km/h
Gust
km/h
Spd
kts
Gust
kts
24/02:30pm 26.0 23.8 15.0 50 6.6 E 20 30 11 16 1014.5 1014.5 0.0
24/02:00pm 25.7 23.6 15.1 52 6.4 ESE 20 32 11 17 1014.6 1014.6 0.0
24/01:30pm 25.9 23.8 15.3 52 6.4 ESE 20 32 11 17 1015.0 1015.0 0.0
24/01:00pm 26.9 25.0 16.6 53 6.4 ESE 22 32 12 17 1015.2 1015.2 0.0
24/12:30pm 26.3 24.7 16.0 53 6.3 ESE 19 30 10 16 1015.4 1015.4 0.0
24/12:00pm 25.8 23.9 15.8 54 6.1 SE 20 30 11 16 1015.8 1015.8 0.0
24/11:30am 25.7 24.6 17.2 59 5.3 ESE 19 32 10 17 1016.1 1016.1 0.0
24/11:00am 25.7 24.4 17.2 59 5.3 ESE 20 28 11 15 1016.3 1016.3 0.0
24/10:30am 25.7 24.6 17.2 59 5.3 ESE 19 26 10 14 1016.5 1016.5 0.0
24/10:00am 25.3 24.5 17.1 60 5.1 ESE 17 30 9 16 1016.6 1016.6 0.0
24/09:30am 24.9 24.4 17.0 61 4.9 ESE 15 24 8 13 1016.7 1016.7 0.0
24/09:00am 24.9 24.6 16.4 59 5.2 ESE 13 20 7 11 1016.8 1016.8 0.0
24/08:30am 24.4 24.4 17.1 63 4.5 SE 13 20 7 11 1016.8 1016.8 0.0
24/08:00am 23.5 23.9 17.2 67 3.9 SSE 11 17 6 9 1016.8 1016.8 0.0
24/07:30am 22.6 23.2 16.9 70 3.5 SSE 9 13 5 7 1017.0 1017.0 0.0
24/07:00am 21.4 21.0 16.1 72 3.2 SSW 13 17 7 9 1016.9 1016.9 0.0
24/06:30am 19.8 19.3 15.9 78 2.3 SSW 13 17 7 9 1016.6 1016.6 0.0
24/06:00am 18.0 17.3 15.4 85 1.5 SSW 13 17 7 9 1016.4 1016.4 0.0
24/05:30am 17.3 16.4 15.8 91 0.9 SSW 15 19 8 10 1016.2 1016.2 0.0
24/05:00am 16.6 15.8 15.2 91 0.8 SSW 13 15 7 8 1016.1 1016.1 0.0
24/04:30am 17.1 16.1 15.6 91 0.9 SSW 15 19 8 10 1015.6 1015.6 0.0
24/04:00am 17.1 16.1 15.7 91 0.8 SSW 15 17 8 9 1015.5 1015.5 0.0
24/03:30am 17.7 17.5 15.8 89 1.1 SSW 11 15 6 8 1015.2 1015.2 0.0
24/03:00am 17.7 17.6 16.0 90 1.0 SSW 11 15 6 8 1015.0 1015.0 0.0
24/02:30am 17.6 18.2 15.9 90 1.0 SSW 7 11 4 6 1015.2 1015.2 0.0
24/02:00am 18.0 18.4 16.3 90 1.0 SSW 9 11 5 6 1015.2 1015.2 0.0
24/01:30am 18.0 18.4 16.3 90 1.0 SSW 9 11 5 6 1015.4 1015.4 0.0
24/01:00am 19.1 19.7 16.8 86 1.4 S 9 11 5 6 1015.7 1015.7 0.0
24/12:30am 19.3 19.9 16.8 85 1.5 S 9 11 5 6 1016.1 1016.1 0.0
24/12:00am 19.7 20.7 16.9 84 1.7 S 7 7 4 4 1016.3 1016.3 0.0
 
Date/Time
EST
Temp
°C
App
Temp
°C
Dew
Point
°C
Rel
Hum
%
Delta-T
°C
Wind Press
QNH
hPa
Press
MSL
hPa
Rain since
9am
mm
Dir  Spd
km/h
Gust
km/h
Spd
kts
Gust
kts
23/11:30pm 20.1 21.2 17.0 82 1.9 S 7 9 4 5 1016.5 1016.5 0.0
23/11:00pm 21.2 22.2 16.9 76 2.6 SE 7 13 4 7 1016.6 1016.6 0.0
23/10:30pm 21.2 21.9 17.1 77 2.5 ESE 9 13 5 7 1016.7 1016.7 0.0
23/10:00pm 21.3 21.6 16.9 76 2.7 ESE 11 19 6 10 1016.8 1016.8 0.0
23/09:30pm 21.4 21.6 16.8 75 2.8 ESE 11 17 6 9 1017.0 1017.0 0.0
23/09:00pm 21.5 21.6 16.5 73 3.0 ESE 11 19 6 10 1017.0 1017.0 0.0
23/08:30pm 21.7 22.2 16.6 73 3.1 ESE 9 15 5 8 1016.7 1016.7 0.0
23/08:00pm 21.7 21.8 16.6 73 3.1 ESE 11 19 6 10 1016.5 1016.5 0.0
23/07:30pm 21.7 21.8 16.4 72 3.2 ESE 11 19 6 10 1016.2 1016.2 0.0
23/07:00pm 21.9 21.5 16.3 70 3.4 ESE 13 24 7 13 1015.8 1015.8 0.0
23/06:30pm 22.1 21.8 16.5 70 3.4 ESE 13 24 7 13 1015.7 1015.7 0.0
23/06:00pm 22.5 21.7 16.2 67 3.8 E 15 26 8 14 1015.3 1015.3 0.0
23/05:30pm 23.0 22.2 16.2 65 4.1 ESE 15 24 8 13 1015.1 1015.1 0.0
23/05:00pm 23.4 22.1 15.8 62 4.6 ESE 17 28 9 15 1014.9 1014.9 0.0
23/04:30pm 23.8 22.5 15.7 60 4.9 E 17 28 9 15 1014.8 1014.8 0.0
23/04:00pm 24.2 22.7 15.4 58 5.3 E 17 28 9 15 1014.6 1014.6 0.0
23/03:30pm 24.3 22.5 15.5 58 5.3 E 19 28 10 15 1014.5 1014.5 0.0
23/03:00pm 24.4 22.7 15.8 58 5.2 E 19 32 10 17 1014.5 1014.5 0.0
23/02:30pm 24.9 23.0 15.8 57 5.5 SE 20 30 11 16 1014.7 1014.7 0.0
23/02:00pm 24.5 23.2 15.7 58 5.3 ESE 17 28 9 15 1014.9 1014.9 0.0
23/01:30pm 24.9 23.3 16.4 59 5.2 ESE 20 30 11 16 1014.9 1014.9 0.0
23/01:00pm 25.8 24.4 16.6 56 5.7 SE 19 28 10 15 1015.2 1015.2 0.0
23/12:30pm 24.7 23.2 15.2 55 5.7 ESE 17 28 9 15 1015.5 1015.5 0.0
23/12:00pm 24.5 23.5 15.7 58 5.3 ESE 15 30 8 16 1015.8 1015.8 0.0
23/11:30am 24.6 23.5 15.3 56 5.6 ENE 15 26 8 14 1016.1 1016.1 0.0
23/11:00am 24.6 23.4 15.1 55 5.7 ESE 15 24 8 13 1016.3 1016.3 0.0
23/10:30am 24.4 22.9 15.4 57 5.4 ESE 17 28 9 15 1016.4 1016.4 0.0
23/10:00am 24.1 23.0 15.3 58 5.3 ESE 15 26 8 14 1016.6 1016.6 0.0
23/09:30am 24.2 22.9 15.8 59 5.1 ESE 17 24 9 13 1016.8 1016.8 0.0
23/09:00am 24.0 23.1 15.9 60 4.9 ESE 15 24 8 13 1016.7 1016.7 0.0
23/08:30am 24.0 22.9 16.3 62 4.7 ESE 17 26 9 14 1016.6 1016.6 0.0
23/08:00am 22.8 22.1 15.4 63 4.4 SSE 13 20 7 11 1016.6 1016.6 0.0
23/07:30am 22.1 21.7 16.1 69 3.6 SSW 13 17 7 9 1016.4 1016.4 0.0
23/07:00am 21.2 20.6 15.7 71 3.3 SSW 13 17 7 9 1016.2 1016.2 0.0
23/06:30am 19.2 18.8 15.3 78 2.3 SSW 11 15 6 8 1016.0 1016.0 0.0
23/06:00am 18.2 17.4 15.1 82 1.8 SSW 13 15 7 8 1015.8 1015.8 0.0
23/05:30am 17.4 16.9 15.0 86 1.4 SSW 11 13 6 7 1015.5 1015.5 0.0
23/05:00am 16.9 16.3 14.6 86 1.3 SSW 11 15 6 8 1015.2 1015.2 0.0
23/04:30am 16.4 15.8 14.5 88 1.1 SSW 11 13 6 7 1015.0 1015.0 0.0
23/04:00am 17.2 17.0 14.8 86 1.4 SSW 9 9 5 5 1014.8 1014.8 0.0
23/03:30am 17.0 16.5 14.9 87 1.2 SSW 11 13 6 7 1014.7 1014.7 0.0
23/03:00am 17.6 17.9 15.0 85 1.5 SSW 7 9 4 5 1014.5 1014.5 0.0
23/02:30am 18.2 18.5 15.1 82 1.8 SE 7 9 4 5 1014.4 1014.4 0.0
23/02:00am 18.4 18.7 15.1 81 1.9 SSE 7 11 4 6 1014.7 1014.7 0.0
23/01:30am 18.3 18.7 15.4 83 1.7 S 7 11 4 6 1015.0 1015.0 0.0
23/01:00am 18.3 18.0 15.4 83 1.7 S 11 13 6 7 1015.2 1015.2 0.0
23/12:30am 18.2 18.6 15.3 83 1.7 S 7 9 4 5 1015.4 1015.4 0.0
23/12:00am 18.7 19.3 15.3 80 2.0 S 6 11 3 6 1015.6 1015.6 0.0
 
Date/Time
EST
Temp
°C
App
Temp
°C
Dew
Point
°C
Rel
Hum
%
Delta-T
°C
Wind Press
QNH
hPa
Press
MSL
hPa
Rain since
9am
mm
Dir  Spd
km/h
Gust
km/h
Spd
kts
Gust
kts
22/11:30pm 18.9 18.9 15.3 79 2.1 ESE 9 15 5 8 1015.9 1015.9 0.0
22/11:00pm 19.2 19.2 15.3 78 2.3 ESE 9 15 5 8 1016.1 1016.1 0.0
22/10:30pm 20.6 20.3 15.4 72 3.1 ESE 11 17 6 9 1016.4 1016.4 0.0
22/10:00pm 20.8 20.0 15.0 69 3.4 ESE 13 20 7 11 1016.3 1016.3 0.0
22/09:30pm 20.9 20.1 15.1 69 3.4 ESE 13 19 7 10 1016.5 1016.5 0.0
22/09:00pm 20.9 20.5 15.3 70 3.3 ESE 11 19 6 10 1016.5 1016.5 0.0
22/08:30pm 20.9 20.1 15.0 69 3.5 ESE 13 19 7 10 1016.4 1016.4 0.0
22/08:00pm 21.2 20.5 14.3 64 4.0 ESE 11 17 6 9 1016.3 1016.3 0.0
22/07:30pm 21.2 20.4 13.9 63 4.2 ESE 11 15 6 8 1016.4 1016.4 0.0
22/07:00pm 21.3 20.1 13.9 62 4.3 ESE 13 17 7 9 1016.2 1016.2 0.0
22/06:30pm 21.4 20.2 14.0 62 4.3 E 13 17 7 9 1016.1 1016.1 0.0
22/06:00pm 21.5 20.8 14.3 63 4.2 ESE 11 19 6 10 1016.0 1016.0 0.0
22/05:30pm 21.7 20.2 14.1 62 4.4 ESE 15 20 8 11 1015.6 1015.6 0.0
22/05:00pm 22.0 20.3 13.7 59 4.8 ESE 15 24 8 13 1015.3 1015.3 0.0
22/04:30pm 22.1 20.7 14.4 61 4.5 ESE 15 28 8 15 1015.3 1015.3 0.0
22/04:00pm 22.2 20.8 14.5 61 4.5 E 15 24 8 13 1015.3 1015.3 0.0
22/03:30pm 22.3 20.4 14.3 60 4.7 ESE 17 26 9 14 1015.4 1015.4 0.0
22/03:00pm 22.4 20.4 14.0 59 4.9 ESE 17 26 9 14 1015.4 1015.4 0.0
22/02:30pm 22.4 20.2 13.2 56 5.3 E 17 26 9 14 1015.6 1015.6 0.0
22/02:00pm 22.9 20.5 11.5 48 6.4 ESE 15 28 8 15 1015.8 1015.8 0.0
22/01:30pm 22.8 20.3 13.5 55 5.4 ESE 19 32 10 17 1016.1 1016.1 0.0
22/01:00pm 23.8 21.5 14.7 56 5.4 SE 20 35 11 19 1016.1 1016.1 0.0
22/12:30pm 24.1 22.5 14.9 56 5.5 ESE 17 30 9 16 1016.2 1016.2 0.0
22/12:00pm 23.7 21.4 14.2 55 5.6 ESE 19 32 10 17 1016.5 1016.5 0.0
22/11:30am 24.7 22.5 14.4 52 6.1 ESE 19 32 10 17 1016.8 1016.8 0.0
22/11:00am 23.5 20.9 13.3 52 5.9 ESE 19 28 10 15 1017.1 1017.1 0.0
22/10:30am 23.2 21.4 13.3 53 5.7 ESE 15 26 8 14 1017.1 1017.1 0.0
22/10:00am 23.1 20.5 12.1 50 6.2 ESE 17 30 9 16 1017.2 1017.2 0.0
22/09:30am 22.8 20.7 13.7 56 5.3 SE 17 30 9 16 1017.1 1017.1 0.0
22/09:00am 22.8 21.8 14.7 60 4.8 SE 13 24 7 13 1017.3 1017.3 2.2
22/08:30am 21.6 20.5 14.4 63 4.2 SE 13 19 7 10 1017.3 1017.3 2.2
22/08:00am 20.3 19.8 15.0 71 3.1 SSE 11 19 6 10 1017.4 1017.4 2.2
22/07:30am 19.9 19.5 15.1 74 2.8 S 11 15 6 8 1017.5 1017.5 2.2
22/07:00am 19.0 18.4 14.7 76 2.5 S 11 17 6 9 1017.4 1017.4 2.2
22/06:30am 18.4 17.7 14.2 76 2.4 SSW 11 17 6 9 1017.2 1017.2 2.2
22/06:00am 17.8 16.9 13.7 77 2.3 SSW 11 15 6 8 1017.0 1017.0 2.2
22/05:30am 17.4 16.4 13.5 78 2.2 S 11 15 6 8 1016.6 1016.6 2.2
22/05:00am 16.8 15.8 13.4 80 1.9 SSW 11 15 6 8 1016.4 1016.4 2.2
22/04:30am 16.6 15.6 13.4 81 1.8 SSW 11 15 6 8 1016.1 1016.1 2.2
22/04:00am 16.7 15.7 13.5 81 1.8 SSW 11 13 6 7 1016.0 1016.0 2.2
22/03:30am 16.7 16.2 13.7 82 1.7 SSW 9 15 5 8 1016.0 1016.0 2.2
22/03:00am 17.2 16.4 14.0 81 1.8 SSW 11 15 6 8 1015.9 1015.9 2.2
22/02:30am 17.6 16.6 13.5 77 2.3 SSW 11 15 6 8 1016.0 1016.0 2.2
22/02:00am 17.7 16.9 14.0 79 2.1 SSW 11 13 6 7 1016.2 1016.2 2.2
22/01:30am 17.9 17.2 14.2 79 2.1 SSW 11 17 6 9 1016.4 1016.4 2.2
22/01:00am 18.0 17.4 14.5 80 2.0 S 11 17 6 9 1016.7 1016.7 2.2
22/12:30am 18.1 17.5 14.6 80 2.0 S 11 15 6 8 1017.0 1017.0 2.2
22/12:00am 18.2 17.6 14.7 80 2.0 S 11 19 6 10 1017.3 1017.3 2.2
 
Date/Time
EST
Temp
°C
App
Temp
°C
Dew
Point
°C
Rel
Hum
%
Delta-T
°C
Wind Press
QNH
hPa
Press
MSL
hPa
Rain since
9am
mm
Dir  Spd
km/h
Gust
km/h
Spd
kts
Gust
kts
21/11:30pm 17.9 18.3 15.2 84 1.6 S 7 9 4 5 1017.8 1017.8 2.2
21/11:00pm 17.9 18.2 15.0 83 1.7 S 7 11 4 6 1018.1 1018.0 1.8
21/10:30pm 18.6 18.3 14.4 76 2.4 S 9 15 5 8 1018.4 1018.3 1.8
21/10:00pm 18.8 18.0 13.9 73 2.8 S 11 17 6 9 1018.4 1018.3 1.8
21/09:30pm 19.2 18.8 14.2 73 2.9 S 9 15 5 8 1018.8 1018.7 1.8
21/09:00pm 19.5 18.7 13.9 70 3.2 S 11 15 6 8 1018.7 1018.6 1.6
21/08:30pm 19.6 18.8 14.0 70 3.2 S 11 17 6 9 1018.7 1018.6 1.6
21/08:00pm 19.6 19.0 15.7 78 2.3 ESE 13 19 7 10 1018.8 1018.7 1.6
21/07:30pm 20.0 18.8 14.1 69 3.4 SSE 13 20 7 11 1018.5 1018.4 1.6
21/07:00pm 20.3 19.5 14.1 67 3.6 SSE 11 17 6 9 1018.5 1018.4 1.6
21/06:30pm 20.5 18.8 13.5 64 4.0 SSE 15 24 8 13 1018.4 1018.3 1.6
21/06:00pm 21.0 18.4 13.3 61 4.4 SE 19 28 10 15 1018.1 1018.0 1.6
21/05:30pm 21.7 19.0 13.5 59 4.7 SE 20 33 11 18 1017.6 1017.6 1.6
21/05:00pm 21.5 19.4 14.7 65 4.0 SE 19 28 10 15 1017.4 1017.4 1.6
21/04:30pm 20.9 20.2 15.3 70 3.3 ESE 13 26 7 14 1017.3 1017.3 1.6
21/04:00pm 19.8 19.9 17.5 86 1.4 ESE 13 19 7 10 1017.4 1017.4 1.6
21/03:41pm 19.5 18.9 16.7 84 1.7 ESE 15 26 8 14 1017.4 1017.4 1.4
21/03:30pm 19.2 17.8 17.1 88 1.3 ESE 20 37 11 20 1017.6 1017.6 1.0

Other Formats:

Comma delimited format used in spreadsheet applications
http://www.bom.gov.au/fwo/IDQ60801/IDQ60801.94578.axf

JavaScript Object Notation format (JSON) in row-major order
http://www.bom.gov.au/fwo/IDQ60801/IDQ60801.94578.json